createdAt,value
2022-11-12T00:03:03.289Z,57.20
2022-11-12T00:05:51.160Z,57.61
2022-11-12T00:08:38.609Z,57.27
2022-11-12T00:11:25.510Z,57.35
2022-11-12T00:14:13.171Z,57.13
2022-11-12T00:17:00.418Z,57.17
2022-11-12T00:19:47.717Z,56.90
2022-11-12T00:22:34.978Z,57.20
2022-11-12T00:25:23.886Z,57.05
2022-11-12T00:28:11.677Z,57.38
2022-11-12T00:30:59.567Z,56.94
2022-11-12T00:33:46.929Z,57.16
2022-11-12T00:36:34.169Z,56.99
2022-11-12T00:39:21.218Z,57.12
2022-11-12T00:42:08.547Z,57.28
2022-11-12T00:44:55.869Z,56.91
2022-11-12T00:47:43.308Z,57.31
2022-11-12T00:50:30.740Z,57.05
2022-11-12T00:53:18.568Z,56.98
2022-11-12T00:56:07.260Z,56.84
2022-11-12T00:58:54.587Z,57.04
2022-11-12T01:01:41.939Z,57.01
2022-11-12T01:04:29.670Z,56.89
2022-11-12T01:07:16.600Z,56.91
2022-11-12T01:10:05.848Z,56.59
2022-11-12T01:12:52.730Z,56.80
2022-11-12T01:15:43.451Z,56.72
2022-11-12T01:18:30.789Z,56.80
2022-11-12T01:21:18.229Z,56.83
2022-11-12T01:24:05.772Z,56.78
2022-11-12T01:26:53.589Z,56.63
2022-11-12T01:29:41.274Z,56.56
2022-11-12T01:32:28.620Z,56.64
2022-11-12T01:35:15.630Z,56.50
2022-11-12T01:38:05.449Z,56.13
2022-11-12T01:40:52.598Z,56.43
2022-11-12T01:43:40.928Z,56.26
2022-11-12T01:46:29.229Z,56.36
2022-11-12T01:49:51.456Z,56.16
2022-11-12T01:52:50.543Z,56.13
2022-11-12T01:55:39.251Z,56.14
2022-11-12T01:58:28.535Z,56.21
2022-11-12T02:01:16.054Z,55.75
2022-11-12T02:04:03.068Z,56.02
2022-11-12T02:06:50.633Z,55.83
2022-11-12T02:09:37.608Z,55.71
2022-11-12T02:12:44.598Z,55.62
2022-11-12T02:15:31.718Z,55.67
2022-11-12T02:18:18.958Z,55.51
2022-11-12T02:21:10.399Z,55.36
2022-11-12T02:24:06.348Z,55.39
2022-11-12T02:26:55.368Z,55.72
2022-11-12T02:29:46.760Z,55.54
2022-11-12T02:32:34.100Z,55.41
2022-11-12T02:35:21.558Z,55.62
2022-11-12T02:38:08.618Z,55.66
2022-11-12T02:40:55.797Z,55.45
2022-11-12T02:43:43.767Z,55.60
2022-11-12T02:46:31.187Z,55.53
2022-11-12T02:49:17.978Z,55.36
2022-11-12T02:52:05.526Z,55.45
2022-11-12T02:54:52.667Z,55.39
2022-11-12T02:57:41.178Z,55.46
2022-11-12T03:00:28.097Z,55.26
2022-11-12T03:03:15.786Z,55.41
2022-11-12T03:06:02.713Z,55.27
2022-11-12T03:08:49.780Z,55.55
2022-11-12T03:11:37.037Z,55.37
2022-11-12T03:14:24.360Z,55.39
2022-11-12T03:17:11.259Z,55.36
2022-11-12T03:19:58.809Z,55.44
2022-11-12T03:23:01.057Z,55.35
2022-11-12T03:25:48.385Z,55.30
2022-11-12T03:28:35.576Z,55.27
2022-11-12T03:31:23.397Z,55.21
2022-11-12T03:34:12.070Z,55.27
2022-11-12T03:36:59.537Z,55.34
2022-11-12T03:39:46.618Z,55.20
2022-11-12T03:42:34.968Z,55.33
2022-11-12T03:45:24.338Z,55.28
2022-11-12T03:48:11.629Z,55.26
2022-11-12T03:50:59.857Z,55.10
2022-11-12T03:53:47.398Z,55.26
2022-11-12T03:56:34.950Z,55.02
2022-11-12T03:59:22.566Z,55.07
2022-11-12T04:02:14.665Z,55.01
2022-11-12T04:05:20.472Z,55.06
2022-11-12T04:08:35.927Z,55.10
2022-11-12T04:11:23.325Z,54.82
2022-11-12T04:14:10.026Z,54.92
2022-11-12T04:17:15.826Z,55.05
2022-11-12T04:20:21.235Z,54.89
2022-11-12T04:23:08.854Z,54.70
2022-11-12T04:26:14.296Z,54.93
2022-11-12T04:29:20.467Z,54.70
2022-11-12T04:32:07.644Z,54.86
2022-11-12T04:34:56.636Z,54.72
2022-11-12T04:37:46.926Z,54.80
2022-11-12T04:40:52.745Z,54.82
2022-11-12T04:44:00.236Z,54.91
2022-11-12T04:46:48.405Z,54.63
2022-11-12T04:49:35.475Z,54.73
2022-11-12T04:52:23.076Z,54.53
2022-11-12T04:55:11.245Z,54.52
2022-11-12T04:58:00.862Z,54.55
2022-11-12T05:00:49.198Z,54.61
2022-11-12T05:03:36.515Z,54.51
2022-11-12T05:06:42.075Z,54.27
2022-11-12T05:09:30.684Z,54.28
2022-11-12T05:12:17.704Z,54.34
2022-11-12T05:15:05.664Z,54.40
2022-11-12T05:17:53.070Z,54.40
2022-11-12T05:20:41.285Z,54.42
2022-11-12T05:23:28.165Z,53.98
2022-11-12T05:26:15.663Z,53.80
2022-11-12T05:29:07.546Z,53.69
2022-11-12T05:31:56.145Z,53.72
2022-11-12T05:34:43.087Z,53.54
2022-11-12T05:37:30.525Z,53.56
2022-11-12T05:40:17.776Z,52.99
2022-11-12T05:43:05.065Z,52.69
2022-11-12T05:45:52.254Z,52.59
2022-11-12T05:48:39.625Z,52.47
2022-11-12T05:51:26.733Z,52.61
2022-11-12T05:54:14.194Z,52.49
2022-11-12T05:57:01.214Z,52.46
2022-11-12T05:59:48.718Z,52.47
2022-11-12T06:02:35.830Z,52.88
2022-11-12T06:05:22.984Z,52.92
2022-11-12T06:08:10.193Z,52.78
2022-11-12T06:10:57.747Z,52.92
2022-11-12T06:13:44.814Z,52.76
2022-11-12T06:16:32.284Z,53.02
2022-11-12T06:19:19.244Z,52.73
2022-11-12T06:22:06.457Z,52.77
2022-11-12T06:24:53.676Z,53.09
2022-11-12T06:27:41.946Z,52.98
2022-11-12T06:30:29.205Z,52.92
2022-11-12T06:33:16.364Z,52.99
2022-11-12T06:36:05.348Z,53.66
2022-11-12T06:38:52.626Z,53.19
2022-11-12T06:41:39.755Z,53.06
2022-11-12T06:44:28.704Z,53.31
2022-11-12T06:47:15.682Z,53.19
2022-11-12T06:50:03.105Z,53.29
2022-11-12T06:52:50.562Z,53.24
2022-11-12T06:55:38.213Z,53.26
2022-11-12T06:58:25.755Z,53.23
2022-11-12T07:01:17.717Z,53.41
2022-11-12T07:04:05.314Z,53.22
2022-11-12T07:06:52.800Z,53.68
2022-11-12T07:09:39.886Z,53.17
2022-11-12T07:12:27.325Z,53.04
2022-11-12T07:15:14.915Z,53.11
2022-11-12T07:18:02.285Z,52.90
2022-11-12T07:20:49.434Z,53.11
2022-11-12T07:23:37.286Z,52.96
2022-11-12T07:26:27.738Z,52.69
2022-11-12T07:29:30.024Z,53.03
2022-11-12T07:32:22.495Z,52.89
2022-11-12T07:35:11.145Z,53.03
2022-11-12T07:37:59.792Z,53.02
2022-11-12T07:40:47.685Z,52.97
2022-11-12T07:43:37.099Z,53.06
2022-11-12T07:46:27.226Z,53.55
2022-11-12T07:49:14.297Z,53.34
2022-11-12T07:52:01.585Z,53.43
2022-11-12T07:54:48.495Z,53.53
2022-11-12T07:57:36.607Z,53.13
2022-11-12T08:00:24.067Z,53.50
2022-11-12T08:03:11.484Z,53.58
2022-11-12T08:06:01.795Z,53.63
2022-11-12T08:08:51.546Z,53.46
2022-11-12T08:11:38.385Z,53.59
2022-11-12T08:14:26.935Z,53.92
2022-11-12T08:17:13.815Z,53.92
2022-11-12T08:20:02.365Z,53.95
2022-11-12T08:22:49.685Z,53.98
2022-11-12T08:25:37.706Z,54.23
2022-11-12T08:28:25.160Z,54.27
2022-11-12T08:31:21.442Z,53.98
2022-11-12T08:34:17.402Z,54.25
2022-11-12T08:37:08.507Z,54.19
2022-11-12T08:39:55.900Z,54.26
2022-11-12T08:42:43.234Z,54.12
2022-11-12T08:45:32.537Z,54.38
2022-11-12T08:48:20.248Z,54.28
2022-11-12T08:51:07.618Z,54.35
2022-11-12T08:53:56.647Z,54.55
2022-11-12T08:56:43.571Z,54.39
2022-11-12T08:59:30.938Z,54.38
2022-11-12T09:02:18.178Z,54.21
2022-11-12T09:05:06.501Z,54.50
2022-11-12T09:08:01.728Z,54.46
2022-11-12T09:10:49.460Z,54.57
2022-11-12T09:13:36.893Z,54.52
2022-11-12T09:16:24.561Z,54.61
2022-11-12T09:19:11.570Z,54.81
2022-11-12T09:21:59.167Z,54.78
2022-11-12T09:24:46.301Z,54.78
2022-11-12T09:27:33.748Z,55.07
2022-11-12T09:30:20.680Z,55.07
2022-11-12T09:33:08.025Z,55.03
2022-11-12T09:35:55.413Z,55.12
2022-11-12T09:38:42.747Z,54.99
2022-11-12T09:41:40.331Z,55.21
2022-11-12T09:44:31.736Z,55.01
2022-11-12T09:47:31.105Z,55.37
2022-11-12T09:50:38.195Z,55.36
2022-11-12T09:54:00.637Z,55.25
2022-11-12T09:56:51.651Z,55.36
2022-11-12T09:59:39.912Z,55.27
2022-11-12T10:03:01.513Z,55.38
2022-11-12T10:06:12.264Z,55.18
2022-11-12T10:09:29.284Z,55.39
2022-11-12T10:12:44.276Z,55.26
2022-11-12T10:16:17.296Z,55.34
2022-11-12T10:19:35.492Z,55.59
2022-11-12T10:22:31.621Z,55.59
2022-11-12T10:25:20.175Z,55.15
2022-11-12T10:28:35.668Z,55.36
2022-11-12T10:31:25.552Z,55.52
2022-11-12T10:34:19.735Z,55.29
2022-11-12T10:37:10.954Z,55.24
2022-11-12T10:39:58.485Z,55.47
2022-11-12T10:43:21.632Z,55.34
2022-11-12T10:46:27.570Z,55.62
2022-11-12T10:49:14.778Z,55.91
2022-11-12T10:52:02.853Z,55.98
2022-11-12T10:54:55.010Z,55.95
2022-11-12T10:57:45.068Z,55.97
2022-11-12T11:00:33.072Z,56.62
2022-11-12T11:03:28.901Z,56.61
2022-11-12T11:06:16.515Z,56.67
2022-11-12T11:09:17.581Z,56.67
2022-11-12T11:12:08.773Z,56.64
2022-11-12T11:15:29.032Z,56.76
2022-11-12T11:18:16.302Z,56.86
2022-11-12T11:21:35.611Z,56.86
2022-11-12T11:24:42.682Z,57.05
2022-11-12T11:27:59.803Z,56.96
2022-11-12T11:31:03.272Z,57.05
2022-11-12T11:34:27.316Z,56.88
2022-11-12T11:37:32.833Z,56.98
2022-11-12T11:40:43.611Z,56.99
2022-11-12T11:44:03.390Z,57.26
2022-11-12T11:47:10.112Z,57.54
2022-11-12T11:50:25.982Z,57.30
2022-11-12T11:53:28.261Z,58.32
2022-11-12T11:56:28.601Z,59.14
2022-11-12T11:59:33.561Z,59.49
2022-11-12T12:03:05.795Z,59.24
2022-11-12T12:06:24.273Z,59.59
2022-11-12T12:09:44.173Z,59.41
2022-11-12T12:13:10.152Z,59.09
2022-11-12T12:16:35.011Z,59.22
2022-11-12T12:19:45.849Z,60.06
2022-11-12T12:23:02.583Z,60.10
2022-11-12T12:25:50.278Z,59.65
2022-11-12T12:28:46.212Z,59.80
2022-11-12T12:31:39.113Z,59.73
2022-11-12T12:34:34.110Z,60.06
2022-11-12T12:37:36.370Z,59.99
2022-11-12T12:40:26.821Z,60.00
2022-11-12T12:43:20.188Z,59.87
2022-11-12T12:46:07.804Z,60.16
2022-11-12T12:48:55.959Z,60.30
2022-11-12T12:51:43.448Z,60.05
2022-11-12T12:54:39.579Z,60.18
2022-11-12T12:57:39.629Z,60.21
2022-11-12T13:00:41.076Z,60.04
2022-11-12T13:03:44.541Z,60.22
2022-11-12T13:06:41.380Z,60.15
2022-11-12T13:09:29.545Z,59.89
2022-11-12T13:12:18.269Z,59.84
2022-11-12T13:15:16.993Z,60.64
2022-11-12T13:18:27.242Z,59.89
2022-11-12T13:21:19.944Z,60.13
2022-11-12T13:24:12.892Z,60.21
2022-11-12T13:27:00.238Z,60.22
2022-11-12T13:29:49.240Z,60.21
2022-11-12T13:32:46.559Z,60.04
2022-11-12T13:35:41.051Z,60.02
2022-11-12T13:38:28.609Z,60.15
2022-11-12T13:41:39.794Z,60.18
2022-11-12T13:44:27.106Z,60.32
2022-11-12T13:47:19.235Z,60.16
2022-11-12T13:50:09.084Z,59.96
2022-11-12T13:52:56.427Z,60.07
2022-11-12T13:55:51.225Z,60.21
2022-11-12T13:58:42.572Z,60.10
2022-11-12T14:01:33.667Z,60.33
2022-11-12T14:04:24.334Z,60.03
2022-11-12T14:07:41.966Z,60.21
2022-11-12T14:10:45.960Z,60.18
2022-11-12T14:14:15.105Z,60.14
2022-11-12T14:17:43.206Z,60.17
2022-11-12T14:20:40.445Z,60.21
2022-11-12T14:23:27.948Z,60.32
2022-11-12T14:26:33.105Z,60.21
2022-11-12T14:29:20.776Z,60.13
2022-11-12T14:32:09.864Z,60.17
2022-11-12T14:34:57.436Z,60.24
2022-11-12T14:37:49.266Z,60.39
2022-11-12T14:40:43.985Z,60.37
2022-11-12T14:43:43.745Z,60.25
2022-11-12T14:46:50.472Z,60.49
2022-11-12T14:49:44.931Z,60.32
2022-11-12T14:52:37.655Z,60.49
2022-11-12T14:55:34.569Z,60.60
2022-11-12T14:58:23.370Z,60.47
2022-11-12T15:02:26.565Z,60.45
2022-11-12T15:05:02.718Z,60.62
2022-11-12T15:08:06.418Z,60.65
2022-11-12T15:10:53.910Z,60.76
2022-11-12T15:13:41.614Z,60.73
2022-11-12T15:16:34.608Z,60.77
2022-11-12T15:19:28.743Z,60.88
2022-11-12T15:22:22.987Z,60.71
2022-11-12T15:25:28.682Z,60.68
2022-11-12T15:28:24.264Z,60.74
2022-11-12T15:31:20.604Z,60.40
2022-11-12T15:34:42.079Z,60.59
2022-11-12T15:37:31.191Z,60.83
2022-11-12T15:40:21.039Z,60.83
2022-11-12T15:43:19.052Z,60.58
2022-11-12T15:46:13.642Z,60.96
2022-11-12T15:49:00.592Z,61.29
2022-11-12T15:51:48.433Z,61.19
2022-11-12T15:54:40.708Z,61.22
2022-11-12T15:57:31.722Z,61.34
2022-11-12T16:00:21.649Z,60.97
2022-11-12T16:03:19.652Z,61.18
2022-11-12T16:06:09.386Z,61.32
2022-11-12T16:08:56.818Z,61.74
2022-11-12T16:11:44.197Z,61.46
2022-11-12T16:14:31.813Z,61.26
2022-11-12T16:17:19.121Z,60.88
2022-11-12T16:20:21.772Z,60.54
2022-11-12T16:23:08.968Z,60.28
2022-11-12T16:25:56.543Z,60.09
2022-11-12T16:28:44.177Z,59.95
2022-11-12T16:31:31.938Z,59.38
2022-11-12T16:34:19.522Z,58.93
2022-11-12T16:37:12.316Z,59.01
2022-11-12T16:39:59.796Z,58.88
2022-11-12T16:42:48.455Z,58.92
2022-11-12T16:45:43.052Z,58.76
2022-11-12T16:48:35.392Z,59.01
2022-11-12T16:51:23.547Z,58.67
2022-11-12T16:54:12.324Z,59.10
2022-11-12T16:56:59.607Z,58.97
2022-11-12T16:59:48.102Z,59.11
2022-11-12T17:02:39.231Z,59.13
2022-11-12T17:05:29.943Z,59.14
2022-11-12T17:08:17.153Z,59.38
2022-11-12T17:11:10.186Z,59.24
2022-11-12T17:13:57.622Z,59.18
2022-11-12T17:16:45.620Z,59.57
2022-11-12T17:19:32.516Z,59.56
2022-11-12T17:22:20.786Z,59.30
2022-11-12T17:25:09.953Z,59.45
2022-11-12T17:27:58.032Z,59.60
2022-11-12T17:30:44.962Z,59.58
2022-11-12T17:33:38.572Z,59.64
2022-11-12T17:36:27.817Z,59.81
2022-11-12T17:42:22.951Z,60.00
2022-11-12T17:45:10.822Z,59.81
2022-11-12T17:47:57.972Z,59.93
2022-11-12T17:50:45.602Z,59.95
2022-11-12T17:53:33.117Z,60.04
2022-11-12T17:56:23.532Z,60.28
2022-11-12T17:59:10.678Z,60.34
2022-11-12T18:01:58.091Z,59.99
2022-11-12T18:04:45.674Z,60.10
2022-11-12T18:07:34.452Z,60.19
2022-11-12T18:10:21.312Z,60.10
2022-11-12T18:13:08.923Z,60.27
2022-11-12T18:15:56.188Z,60.22
2022-11-12T18:18:43.901Z,60.14
2022-11-12T18:21:31.167Z,60.34
2022-11-12T18:24:18.642Z,59.91
2022-11-12T18:27:06.092Z,60.07
2022-11-12T18:29:54.312Z,60.10
2022-11-12T18:32:43.123Z,60.11
2022-11-12T18:35:30.837Z,60.24
2022-11-12T18:38:18.053Z,60.12
2022-11-12T18:41:15.822Z,60.05
2022-11-12T18:44:03.113Z,59.98
2022-11-12T18:46:50.401Z,59.99
2022-11-12T18:49:37.393Z,60.14
2022-11-12T18:52:24.952Z,59.88
2022-11-12T18:55:12.301Z,60.04
2022-11-12T18:57:59.663Z,60.00
2022-11-12T19:00:46.934Z,59.93
2022-11-12T19:03:37.349Z,59.88
2022-11-12T19:06:24.847Z,59.69
2022-11-12T19:09:14.214Z,59.67
2022-11-12T19:12:01.331Z,59.35
2022-11-12T19:14:49.033Z,59.34
2022-11-12T19:17:36.023Z,59.12
2022-11-12T19:20:23.272Z,58.74
2022-11-12T19:23:10.752Z,58.43
2022-11-12T19:26:04.044Z,58.25
2022-11-12T19:28:51.463Z,58.25
2022-11-12T19:31:39.052Z,58.10
2022-11-12T19:34:25.967Z,58.07
2022-11-12T19:37:32.364Z,57.97
2022-11-12T19:40:20.444Z,57.97
2022-11-12T19:43:08.760Z,57.85
2022-11-12T19:45:55.827Z,57.91
2022-11-12T19:48:44.824Z,57.93
2022-11-12T19:51:32.303Z,58.06
2022-11-12T19:54:19.953Z,58.01
2022-11-12T19:57:07.351Z,57.92
2022-11-12T19:59:54.982Z,58.11
2022-11-12T20:02:42.324Z,58.12
2022-11-12T20:05:30.553Z,58.14
2022-11-12T20:08:17.532Z,58.04
2022-11-12T20:11:05.753Z,58.10
2022-11-12T20:13:54.155Z,58.33
2022-11-12T20:16:42.925Z,58.28
2022-11-12T20:19:30.088Z,58.22
2022-11-12T20:22:17.796Z,58.41
2022-11-12T20:25:05.589Z,58.25
2022-11-12T20:27:52.987Z,58.34
2022-11-12T20:30:40.257Z,58.61
2022-11-12T20:33:28.001Z,58.43
2022-11-12T20:36:20.024Z,58.52
2022-11-12T20:39:08.311Z,58.61
2022-11-12T20:41:55.259Z,58.59
2022-11-12T20:44:42.613Z,58.57
2022-11-12T20:47:29.914Z,58.53
2022-11-12T20:50:17.603Z,58.69
2022-11-12T20:53:06.027Z,58.56
2022-11-12T20:55:53.642Z,58.60
2022-11-12T20:58:40.943Z,58.68
2022-11-12T21:01:30.337Z,58.94
2022-11-12T21:04:17.533Z,58.71
2022-11-12T21:07:06.491Z,58.69
2022-11-12T21:09:54.073Z,58.67
2022-11-12T21:12:41.516Z,58.83
2022-11-12T21:15:28.739Z,58.79
2022-11-12T21:18:16.326Z,58.90
2022-11-12T21:21:10.088Z,59.07
2022-11-12T21:24:03.411Z,58.94
2022-11-12T21:26:52.048Z,58.68
2022-11-12T21:29:39.597Z,58.93
2022-11-12T21:32:26.847Z,58.98
2022-11-12T21:35:14.142Z,59.08
2022-11-12T21:38:01.226Z,58.99
2022-11-12T21:40:48.424Z,58.91
2022-11-12T21:43:40.124Z,58.85
2022-11-12T21:46:30.979Z,58.99
2022-11-12T21:49:18.141Z,58.86
2022-11-12T21:52:05.609Z,59.01
2022-11-12T21:54:52.674Z,58.90
2022-11-12T21:57:39.844Z,59.10
2022-11-12T22:00:41.394Z,59.13
2022-11-12T22:03:32.297Z,59.01
2022-11-12T22:06:20.702Z,59.15
2022-11-12T22:09:08.033Z,59.17
2022-11-12T22:11:55.194Z,59.09
2022-11-12T22:14:43.902Z,59.10
2022-11-12T22:17:33.646Z,58.92
2022-11-12T22:20:20.758Z,59.18
2022-11-12T22:23:07.574Z,59.17
2022-11-12T22:25:58.158Z,59.16
2022-11-12T22:28:46.292Z,59.20
2022-11-12T22:31:33.683Z,59.34
2022-11-12T22:34:21.030Z,59.30
2022-11-12T22:37:08.180Z,59.22
2022-11-12T22:39:55.748Z,59.27
2022-11-12T22:42:42.820Z,59.39
2022-11-12T22:45:30.256Z,59.29
2022-11-12T22:48:17.498Z,59.28
2022-11-12T22:51:08.089Z,59.05
2022-11-12T22:53:58.937Z,59.38
2022-11-12T22:56:45.800Z,59.26
2022-11-12T22:59:34.673Z,59.14
2022-11-12T23:02:22.472Z,59.25
2022-11-12T23:05:09.588Z,59.32
2022-11-12T23:07:56.373Z,59.35
2022-11-12T23:10:45.940Z,59.26
2022-11-12T23:13:33.485Z,59.25
2022-11-12T23:16:24.432Z,59.23
2022-11-12T23:19:11.325Z,59.04
2022-11-12T23:22:02.835Z,59.25
2022-11-12T23:24:52.045Z,59.33
2022-11-12T23:27:39.823Z,59.06
2022-11-12T23:30:26.894Z,59.19
2022-11-12T23:33:15.392Z,59.27
2022-11-12T23:36:12.491Z,59.15
2022-11-12T23:39:02.009Z,59.24
2022-11-12T23:41:48.779Z,59.09
2022-11-12T23:44:35.973Z,59.19
2022-11-12T23:47:23.230Z,59.21
2022-11-12T23:50:11.367Z,59.22
2022-11-12T23:52:58.328Z,59.06
2022-11-12T23:55:47.123Z,59.15
2022-11-12T23:58:34.183Z,59.24
